Flight Track Log - Related Links

Times and Time Zones

All times are in EDT time to prevent confusion due to time zone crossing. See the N137TK flight status page for this flight to view local times or setup timezone preferences in your user account.

Time Position Orientation Groundspeed Altitude Reporting Facility
EDT Latitude Longitude Course Direction KTS MPH feet Rate Location/Type
Wed 02:43:05 PM 37.5847 -75.8067 225° Southwest 149 171 2,900  Level Washington Center
Wed 02:43:45 PM 37.5661 -75.8303 225° Southwest 154 177 3,900 1,705 Climbing Washington Center
Wed 02:44:33 PM 37.5367 -75.8617 220° Southwest 165 190 5,400 1,872 Climbing Washington Center
Wed 02:45:34 PM 37.4886 -75.8825 199° South 183 211 7,300 1,820 Climbing Washington Center
Wed 02:46:35 PM 37.4447 -75.9058 203° Southwest 169 194 9,100 1,623 Climbing Washington Center
Wed 02:47:36 PM 37.3989 -75.9317 204° Southwest 183 211 10,600 1,525 Climbing Washington Center
Wed 02:48:37 PM 37.3508 -75.9575 203° Southwest 185 213 12,200 1,537 Climbing Washington Center
Wed 02:49:37 PM 37.3008 -75.9836 203° Southwest 191 220 13,700 1,417 Climbing Washington Center
Wed 02:50:44 PM 37.2442 -76.0144 203° Southwest 197 227 15,200 1,313 Climbing Washington Center
Wed 02:51:45 PM 37.1942 -76.0428 204° Southwest 195 224 16,500 1,279 Climbing Washington Center
Wed 02:52:46 PM 37.1439 -76.0661 200° South 193 222 17,800 1,180 Climbing Washington Center
Wed 02:53:47 PM 37.0939 -76.0944 204° Southwest 187 215 18,900 1,082 Climbing Washington Center
Wed 02:54:48 PM 37.0478 -76.1203 204° Southwest 184 212 20,000 1,082 Climbing Washington Center
Wed 02:55:49 PM 37.0017 -76.1458 204° Southwest 184 212 21,100 1,091 Climbing Washington Center
Wed 02:56:49 PM 36.9558 -76.1689 202° Southwest 178 205 22,200 942 Climbing Washington Center
Wed 02:57:50 PM 36.9097 -76.1972 206° Southwest 177 204 23,000 393 Climbing Washington Center
Wed 02:58:51 PM 36.8617 -76.2358 213° Southwest 218 251 23,000  Level Washington Center
Wed 02:59:51 PM 36.8069 -76.2819 214° Southwest 253 291 23,000  Level Washington Center
Wed 03:00:51 PM 36.7506 -76.3308 215° Southwest 234 269 23,000  Level Washington Center
Wed 03:01:52 PM 36.6981 -76.3794 217° Southwest 245 282 23,000  Level Washington Center
Wed 03:02:52 PM 36.6392 -76.4333 216° Southwest 246 283 23,000  Level Washington Center
Wed 03:03:55 PM 36.5847 -76.4817 215° Southwest 248 285 23,000  Level Washington Center
Wed 03:05:17 PM 36.5089 -76.5481 215° Southwest 257 296 23,000 171 Level Washington Center
Wed 03:06:15 PM 36.4544 -76.5992 217° Southwest 257 296 23,400 454 Climbing Washington Center
Wed 03:07:16 PM 36.4058 -76.6450 217° Southwest 244 281 23,900 492 Climbing Washington Center
Wed 03:08:17 PM 36.3533 -76.6881 213° Southwest 239 275 24,400 492 Climbing Washington Center
Wed 03:09:18 PM 36.3050 -76.7311 216° Southwest 233 268 24,900 462 Climbing Washington Center
Wed 03:10:27 PM 36.2567 -76.7742 216° Southwest 222 255 25,400 504 Climbing Washington Center
Wed 03:11:29 PM 36.1978 -76.8275 216° Southwest 222 255 26,000 295 Climbing Washington Center
Wed 03:12:29 PM 36.1492 -76.8706 216° Southwest 227 261 26,000  Level Washington Center
Wed 03:13:27 PM 36.0967 -76.9183 216° Southwest 232 267 26,000  Level Washington Center
Wed 03:14:28 PM 36.0397 -76.9636 213° Southwest 232 267 26,000  Level Washington Center
Wed 03:15:29 PM 35.9869 -77.0167 219° Southwest 238 274 26,000  Level Washington Center
Wed 03:16:29 PM 35.9281 -77.0644 213° Southwest 244 281 26,000  Level Washington Center
Wed 03:17:29 PM 35.8753 -77.1122 216° Southwest 244 281 26,000  Level Washington Center
Wed 03:18:27 PM 35.8286 -77.1572 218° Southwest 239 275 26,000  Level Washington Center
Wed 03:19:28 PM 35.7758 -77.2125 220° Southwest 239 275 26,000  Level Washington Center
Wed 03:20:29 PM 35.7228 -77.2653 219° Southwest 244 281 26,000  Level Washington Center
Wed 03:21:27 PM 35.6700 -77.3178 219° Southwest 244 281 26,000  Level Washington Center
Wed 03:22:28 PM 35.6192 -77.3706 220° Southwest 244 281 26,000  Level Washington Center
Wed 03:23:29 PM 35.5661 -77.4253 220° Southwest 244 281 26,000  Level Washington Center
Wed 03:24:27 PM 35.5153 -77.4753 219° Southwest 244 281 26,000  Level Washington Center
Wed 03:25:27 PM 35.4622 -77.5300 220° Southwest 244 281 26,000  Level Washington Center
Wed 03:26:28 PM 35.4092 -77.5825 219° Southwest 244 281 26,000  Level Washington Center
Wed 03:27:29 PM 35.3561 -77.6344 219° Southwest 244 281 26,000  Level Washington Center
Wed 03:28:29 PM 35.3031 -77.6892 220° Southwest 250 288 26,000  Level Washington Center
Wed 03:29:27 PM 35.2458 -77.7486 220° Southwest 250 288 26,000  Level Washington Center
Wed 03:30:27 PM 35.1925 -77.8006 219° Southwest 250 288 26,000  Level Washington Center
Wed 03:31:28 PM 35.1394 -77.8550 220° Southwest 250 288 26,000  Level Washington Center
Wed 03:32:29 PM 35.0861 -77.9094 220° Southwest 255 293 26,000  Level Washington Center
Wed 03:33:27 PM 35.0331 -77.9636 220° Southwest 255 293 26,000  Level Washington Center
Wed 03:34:28 PM 34.9778 -78.0178 219° Southwest 255 293 26,000  Level Washington Center
Wed 03:35:29 PM 34.9244 -78.0694 218° Southwest 255 293 26,000  Level Washington Center
Wed 03:36:29 PM 34.8711 -78.1236 220° Southwest 255 293 26,000  Level Washington Center
Wed 03:37:27 PM 34.8178 -78.1775 220° Southwest 255 293 26,000  Level Washington Center
Wed 03:38:27 PM 34.7664 -78.2339 222° Southwest 255 293 26,000  Level Washington Center
Wed 03:39:28 PM 34.7153 -78.2881 221° Southwest 255 293 26,000  Level Washington Center
Wed 03:40:29 PM 34.6619 -78.3417 220° Southwest 255 293 26,000  Level Washington Center
Wed 03:41:27 PM 34.6064 -78.3928 217° Southwest 255 293 26,000  Level Washington Center
Wed 03:42:55 PM 34.5325 -78.4594 217° Southwest 240 276 26,000  Level Jacksonville Center
Wed 03:43:54 PM 34.4761 -78.5203 222° Southwest 245 282 26,000  Level Jacksonville Center
Wed 03:44:54 PM 34.4217 -78.5758 220° Southwest 250 288 26,000  Level Jacksonville Center
Wed 03:45:54 PM 34.3692 -78.6261 218° Southwest 250 288 26,000  Level Jacksonville Center
Wed 03:46:54 PM 34.3167 -78.6767 219° Southwest 250 288 26,000  Level Jacksonville Center
Wed 03:47:54 PM 34.2661 -78.7242 218° Southwest 259 298 26,000  Level Jacksonville Center
Wed 03:48:54 PM 34.2136 -78.7769 220° Southwest 259 298 26,000  Level Jacksonville Center
Wed 03:49:54 PM 34.1611 -78.8272 218° Southwest 254 292 26,000  Level Jacksonville Center
Wed 03:50:54 PM 34.1064 -78.8800 219° Southwest 254 292 26,000  Level Jacksonville Center
Wed 03:51:54 PM 34.0517 -78.9325 218° Southwest 254 292 26,000  Level Jacksonville Center
Wed 03:52:54 PM 33.9992 -78.9850 220° Southwest 254 292 26,000  Level Jacksonville Center
Wed 03:53:54 PM 33.9464 -79.0375 220° Southwest 254 292 26,000  Level Jacksonville Center
Wed 03:54:54 PM 33.8917 -79.0875 217° Southwest 254 292 26,000  Level Jacksonville Center
Wed 03:55:54 PM 33.8369 -79.1397 218° Southwest 254 292 26,000  Level Jacksonville Center
Wed 03:56:54 PM 33.7822 -79.1919 218° Southwest 254 292 26,000  Level Jacksonville Center
Wed 03:57:54 PM 33.7294 -79.2417 218° Southwest 254 292 26,000  Level Jacksonville Center
Wed 03:58:54 PM 33.6806 -79.2911 220° Southwest 248 285 26,000  Level Jacksonville Center
Wed 03:59:54 PM 33.6278 -79.3431 219° Southwest 248 285 26,000  Level Jacksonville Center
Wed 04:00:54 PM 33.5731 -79.3953 218° Southwest 253 291 26,000  Level Jacksonville Center
Wed 04:01:54 PM 33.5200 -79.4447 218° Southwest 253 291 26,000  Level Jacksonville Center
Wed 04:02:54 PM 33.4653 -79.4992 220° Southwest 253 291 26,000  Level Jacksonville Center
Wed 04:03:54 PM 33.4122 -79.5483 218° Southwest 253 291 26,000  Level Jacksonville Center
Wed 04:04:54 PM 33.3572 -79.6000 218° Southwest 253 291 26,000  Level Jacksonville Center
Wed 04:05:54 PM 33.3025 -79.6544 220° Southwest 253 291 26,000  Level Jacksonville Center
Wed 04:06:54 PM 33.2453 -79.7061 217° Southwest 253 291 26,000  Level Jacksonville Center
Wed 04:07:54 PM 33.1903 -79.7578 218° Southwest 253 291 26,000  Level Jacksonville Center
Wed 04:08:54 PM 33.1353 -79.8117 219° Southwest 253 291 26,000  Level Jacksonville Center
Wed 04:09:54 PM 33.0781 -79.8633 217° Southwest 253 291 26,000  Level Jacksonville Center
Wed 04:10:54 PM 33.0231 -79.9172 219° Southwest 253 291 26,000  Level Jacksonville Center
Wed 04:11:54 PM 32.9656 -79.9686 217° Southwest 253 291 26,000  Level Jacksonville Center
Wed 04:12:54 PM 32.9083 -80.0200 217° Southwest 259 298 26,000  Level Jacksonville Center
Wed 04:13:54 PM 32.8511 -80.0661 214° Southwest 259 298 26,000  Level Jacksonville Center
Wed 04:14:54 PM 32.7894 -80.1150 214° Southwest 264 304 26,000  Level Jacksonville Center
Wed 04:15:54 PM 32.7278 -80.1589 211° Southwest 264 304 26,000  Level Jacksonville Center
Wed 04:16:54 PM 32.6661 -80.2053 212° Southwest 264 304 26,000  Level Jacksonville Center
Wed 04:17:54 PM 32.6044 -80.2514 212° Southwest 264 304 26,000  Level Jacksonville Center
Wed 04:18:54 PM 32.5428 -80.2975 212° Southwest 264 304 26,000  Level Jacksonville Center
Wed 04:19:54 PM 32.4811 -80.3436 212° Southwest 269 310 26,000  Level Jacksonville Center
Wed 04:20:54 PM 32.4175 -80.3897 211° Southwest 274 315 26,000  Level Jacksonville Center
Wed 04:21:54 PM 32.3536 -80.4333 210° Southwest 274 315 26,000  Level Jacksonville Center
Wed 04:22:54 PM 32.2897 -80.4817 213° Southwest 274 315 26,000  Level Jacksonville Center
Wed 04:23:54 PM 32.2281 -80.5275 212° Southwest 274 315 26,000  Level Jacksonville Center
Wed 04:24:54 PM 32.1553 -80.5442 191° South 268 308 26,000  Level Jacksonville Center
Wed 04:25:54 PM 32.0803 -80.5633 192° South 256 295 26,000  Level Jacksonville Center
Wed 04:26:54 PM 32.0139 -80.5772 190° South 271 312 26,000  Level Jacksonville Center
Wed 04:27:54 PM 31.9328 -80.5914 188° South 278 320 26,000  Level Jacksonville Center
Wed 04:28:54 PM 31.8661 -80.6028 188° South 272 313 26,000  Level Jacksonville Center
Wed 04:29:54 PM 31.7850 -80.6147 187° South 272 313 26,000  Level Jacksonville Center
Wed 04:30:54 PM 31.7097 -80.6142 180° South 272 313 26,000  Level Jacksonville Center
Wed 04:31:54 PM 31.6428 -80.6133 179° South 272 313 26,000  Level Jacksonville Center
Wed 04:32:54 PM 31.5636 -80.6128 180° South 278 320 26,000  Level Jacksonville Center
Wed 04:33:54 PM 31.4906 -80.6147 181° South 278 320 26,000  Level Jacksonville Center
Wed 04:35:00 PM 31.4149 -80.6094 177° South  Level FlightAware Approximate
Wed 04:35:54 PM 31.3336 -80.6039 177° South 272 313 26,000  Level Jacksonville Center
Wed 04:36:54 PM 31.2586 -80.6008 178° South 272 313 26,000  Level Jacksonville Center
Wed 04:37:54 PM 31.1833 -80.5978 178° South 277 319 26,000  Level Jacksonville Center
Wed 04:38:54 PM 31.1122 -80.5994 181° South 265 305 26,000  Level Jacksonville Center
Wed 04:39:54 PM 31.0328 -80.5942 177° South 276 318 26,000  Level Jacksonville Center
Wed 04:40:54 PM 30.9492 -80.5889 177° South 276 318 26,000  Level Jacksonville Center
Wed 04:41:54 PM 30.8742 -80.5883 180° South 271 312 26,000  Level Jacksonville Center
Wed 04:42:54 PM 30.7989 -80.5878 180° South 276 318 26,000  Level Jacksonville Center
Wed 04:43:54 PM 30.7236 -80.5822 176° South 276 318 26,000  Level Jacksonville Center
Wed 04:44:54 PM 30.6464 -80.5819 180° South 276 318 26,000  Level Jacksonville Center
Wed 04:45:54 PM 30.5692 -80.5789 178° South 271 312 26,000  Level Jacksonville Center
Wed 04:46:54 PM 30.4981 -80.5783 180° South 271 312 26,000  Level Jacksonville Center
Wed 04:47:54 PM 30.4186 -80.5753 178° South 271 312 26,000  Level Jacksonville Center
Wed 04:48:54 PM 30.3456 -80.5747 180° South 271 312 26,000  Level Jacksonville Center
Wed 04:49:54 PM 30.2747 -80.5717 178° South 266 306 26,000  Level Jacksonville Center
Wed 04:50:54 PM 30.1994 -80.5686 178° South 266 306 26,000  Level Jacksonville Center
Wed 04:51:54 PM 30.1283 -80.5656 178° South 272 313 26,000  Level Jacksonville Center
Wed 04:52:54 PM 30.0531 -80.5625 178° South 272 313 26,000  Level Jacksonville Center
Wed 04:53:54 PM 29.9800 -80.5619 180° South 272 313 26,000  Level Jacksonville Center
Wed 04:54:54 PM 29.9050 -80.5614 180° South 272 313 26,000  Level Jacksonville Center
Wed 04:55:54 PM 29.8317 -80.5558 176° South 272 313 26,000  Level Jacksonville Center
Wed 04:56:54 PM 29.7567 -80.5553 180° South 272 313 26,000  Level Jacksonville Center
Wed 04:57:54 PM 29.6814 -80.5547 180° South 272 313 26,000  Level Jacksonville Center
Wed 04:58:54 PM 29.6083 -80.5517 178° South 267 307 26,000  Level Jacksonville Center
Wed 04:59:54 PM 29.5331 -80.5511 180° South 267 307 26,000  Level Jacksonville Center
Wed 05:00:54 PM 29.4642 -80.5481 178° South 267 307 26,000  Level Jacksonville Center
Wed 05:01:54 PM 29.3931 -80.5450 178° South 267 307 26,000  Level Jacksonville Center
Wed 05:02:54 PM 29.3200 -80.5419 178° South 267 307 26,000  Level Jacksonville Center
Wed 05:03:54 PM 29.2450 -80.5389 178° South 267 307 26,000  Level Jacksonville Center
Wed 05:04:54 PM 29.1717 -80.5358 178° South 267 307 26,000  Level Jacksonville Center
Wed 05:05:54 PM 29.0986 -80.5328 178° South 273 314 26,000  Level Jacksonville Center
Wed 05:07:00 PM 29.0153 -80.5325 180° South 273 314 26,000  Level Miami Center
Wed 05:08:00 PM 28.9403 -80.5300 178° South 273 314 26,000  Level Miami Center
Wed 05:09:00 PM 28.8692 -80.5278 178° South 268 308 26,000  Level Miami Center
Wed 05:10:00 PM 28.8025 -80.5256 178° South 266 306 26,000  Level Miami Center
Wed 05:11:00 PM 28.7192 -80.5228 178° South 266 306 26,000 -50 Level Miami Center
Wed 05:12:00 PM 28.6464 -80.5203 178° South 266 306 25,900 -600 Descending Miami Center
Wed 05:13:00 PM 28.5669 -80.5200 180° South 278 320 24,800 -950 Descending Miami Center
Wed 05:14:00 PM 28.4942 -80.5153 177° South 289 333 24,000 -600 Descending Miami Center
Wed 05:15:00 PM 28.4147 -80.5128 178° South 294 338 23,600 -500 Descending Miami Center
Wed 05:16:00 PM 28.3314 -80.5100 178° South 289 333 23,000 -600 Descending Miami Center
Wed 05:17:00 PM 28.2542 -80.5075 178° South 289 333 22,400 -500 Descending Miami Center
Wed 05:18:00 PM 28.1667 -80.5047 178° South 289 333 22,000 -200 Descending Miami Center
Wed 05:19:00 PM 28.0997 -80.5144 187° South 289 333 22,000 -100 Level Miami Center
Wed 05:20:00 PM 28.0322 -80.5428 200° South 276 318 21,800 -350 Descending Miami Center
Wed 05:21:00 PM 27.9625 -80.5758 203° Southwest 271 312 21,300 -500 Descending Miami Center
Wed 05:22:00 PM 27.8906 -80.6111 203° Southwest 276 318 20,800 -550 Descending Miami Center
Wed 05:23:00 PM 27.8081 -80.6506 203° Southwest 281 323 20,200 -650 Descending Miami Center
Wed 05:24:00 PM 27.7364 -80.6833 202° Southwest 281 323 19,500 -750 Descending Miami Center
Wed 05:25:00 PM 27.6622 -80.7183 203° Southwest 281 323 18,700 -800 Descending Miami Center
Wed 05:26:00 PM 27.5925 -80.7489 201° Southwest 275 316 17,900 -800 Descending Miami Center
Wed 05:27:00 PM 27.5142 -80.7906 205° Southwest 276 318 17,100 -900 Descending Miami Center
Wed 05:28:00 PM 27.4403 -80.8231 201° Southwest 295 339 16,100 -1,000 Descending Miami Center
Wed 05:29:00 PM 27.3683 -80.8558 202° Southwest 295 339 15,100 -900 Descending Miami Center
Wed 05:30:00 PM 27.3153 -80.8842 205° Southwest 290 334 14,300 -850 Descending Miami Center
Wed 05:31:00 PM 27.2553 -80.9406 220° Southwest 245 282 13,400 -950 Descending Miami Center
Wed 05:32:00 PM 27.2081 -80.9903 223° Southwest 240 276 12,400 -1,100 Descending Miami Center
Wed 05:33:00 PM 27.1542 -81.0492 224° Southwest 254 292 11,200 -1,300 Descending Miami Center
Wed 05:34:00 PM 27.1003 -81.1031 222° Southwest 282 325 9,800 -1,350 Descending Miami Center
Wed 05:35:00 PM 27.0422 -81.1664 224° Southwest 282 325 8,500 -1,450 Descending Miami Center
Wed 05:36:00 PM 26.9817 -81.2317 224° Southwest 282 325 6,900 -1,250 Descending Miami Center
Wed 05:37:00 PM 26.9256 -81.2925 224° Southwest 282 325 6,000 -450 Descending Miami Center
Wed 05:38:00 PM 26.8717 -81.3461 222° Southwest 270 311 6,000 -150 Level Miami Center
Wed 05:39:00 PM 26.8361 -81.4169 241° Southwest 270 311 5,700 -400 Descending Miami Center
Wed 05:40:00 PM 26.8044 -81.4947 245° Southwest 270 311 5,200 -500 Descending Miami Center
Wed 05:41:00 PM 26.7708 -81.5703 244° Southwest 275 316 4,700 -700 Descending Miami Center
Wed 05:42:00 PM 26.7392 -81.6411 243° Southwest 270 311 3,800 -950 Descending Miami Center
Wed 05:43:00 PM 26.7119 -81.7075 245° Southwest 270 311 2,800 -1,000 Descending Miami Center
Wed 05:44:00 PM 26.6803 -81.7781 243° Southwest 252 290 1,800 -650 Descending Miami Center
Wed 05:45:00 PM 26.6533 -81.8375 243° Southwest 236 272 1,500 -300 Descending Miami Center
Wed 05:46:00 PM 26.5833 -81.8500 246° West  Level FlightAware Approximate
Wed 05:53:00 PM 26.5866 -81.8633 246° West  Level Estimated
Wed 05:54:00 PM 26.5866 -81.8633 246° West  Level Estimated
Wed 05:55:00 PM 26.5866 -81.8633 246° West  Level Estimated
Wed 05:56:00 PM 26.5866 -81.8633 246° West  Level Estimated

Login

Don't have an account? Register now (free) for customized features, flight alerts, and more!